JM-0004 weather

Ewarton Airstrip
Ewarton, Saint Catherine, Jamaica

Public forecast

Using degrees Celsius for public forecast. Weather courtesy of forecast.io.

Closest aviation weather report (METAR) to Ewarton Airstrip

Closest report is Norman Manley International Airport, 21.5 nm (39.8 km) SE. Retrieved 2020/06/01 22:00 UTC (46 minutes ago):

MKJP 012200Z 15022KT 9999 FEW022 30/23 Q1012

Closest aviation forecast (TAF) to Ewarton Airstrip

Closest forecast is Norman Manley International Airport, 21.5 nm (39.8 km) SE. Retrieved 2020/06/01 18:52 UTC (4 hours ago):

TAF COR MKJP 011715Z 0118/0218 14023KT 9999 FEW022 BECMG 0202/0204 12013KT BECMG 0216/0218 14025KT